Time;durP1;ratioP1;P1;durP2;ratioP2;P2;SDS_P1;SDS_P2;PMS_P1;PMS_P2;Temp;Humidity;BMP_temperature;BMP_pressure;BME280_temperature;BME280_humidity;BME280_pressure;Samples;Min_cycle;Max_cycle;Signal;HPM_P1;HPM_P2
2021/01/29 00:02:29;;;;;;;1.63;0.80;;;10.00;99.90;;;;;;20614199;28;20235;-68
2021/01/29 00:12:32;;;;;;;1.90;1.50;;;9.60;99.90;;;;;;20613295;28;20278;-68
2021/01/29 00:22:38;;;;;;;5.67;0.77;;;10.00;99.90;;;;;;20601319;28;20583;-67
2021/01/29 00:32:40;;;;;;;1.43;1.23;;;10.10;99.90;;;;;;20587209;28;20255;-67
2021/01/29 00:42:47;;;;;;;1.97;1.70;;;10.00;99.90;;;;;;20572396;28;20239;-68
2021/01/29 00:52:49;;;;;;;1.70;1.60;;;10.20;99.90;;;;;;20610957;28;20195;-68
2021/01/29 01:02:53;;;;;;;2.33;1.63;;;10.50;99.90;;;;;;20611290;28;20329;-67
2021/01/29 01:12:56;;;;;;;1.33;1.00;;;10.40;99.90;;;;;;20610385;28;20192;-66
2021/01/29 01:23:00;;;;;;;0.50;0.40;;;10.30;99.90;;;;;;20626427;28;20320;-67
2021/01/29 01:33:05;;;;;;;1.17;1.07;;;10.10;99.90;;;;;;20596121;28;20231;-67
2021/01/29 01:43:09;;;;;;;2.20;1.50;;;10.20;99.90;;;;;;20626402;28;20232;-67
2021/01/29 01:53:19;;;;;;;6.77;1.37;;;10.10;99.90;;;;;;20595718;28;20290;-67
2021/01/29 02:03:28;;;;;;;1.10;1.00;;;10.40;99.90;;;;;;20624696;28;20219;-66
2021/01/29 02:13:31;;;;;;;0.83;0.80;;;10.50;99.90;;;;;;20625471;28;20587;-67
2021/01/29 02:24:11;;;;;;;1.17;1.07;;;10.50;99.90;;;;;;20622400;28;20313;-69
2021/01/29 02:34:52;;;;;;;0.40;0.40;;;10.80;99.90;;;;;;20590480;28;20298;-68
2021/01/29 02:45:06;;;;;;;1.60;0.73;;;11.00;99.90;;;;;;20621996;28;20231;-67
2021/01/29 02:55:20;;;;;;;0.93;0.57;;;11.10;99.90;;;;;;20622530;28;20549;-67
2021/01/29 03:05:27;;;;;;;0.90;0.90;;;11.10;99.90;;;;;;20623948;28;20222;-67
2021/01/29 03:15:35;;;;;;;0.83;0.60;;;10.90;99.90;;;;;;20623550;28;20243;-69
2021/01/29 03:25:43;;;;;;;1.17;1.07;;;10.80;99.90;;;;;;20620525;28;20591;-68
2021/01/29 03:35:54;;;;;;;1.00;0.83;;;11.00;99.90;;;;;;20618284;28;20283;-70
2021/01/29 03:46:08;;;;;;;0.20;0.10;;;11.10;99.90;;;;;;20613756;28;20842;-68
2021/01/29 03:56:27;;;;;;;0.20;0.20;;;11.90;99.90;;;;;;20538197;28;20685;-69
2021/01/29 04:06:37;;;;;;;0.30;0.30;;;14.30;99.90;;;;;;20556250;28;20274;-68
2021/01/29 04:16:44;;;;;;;0.20;0.10;;;14.70;99.90;;;;;;20527775;28;20208;-68
2021/01/29 04:26:52;;;;;;;0.93;0.37;;;13.50;99.90;;;;;;20597476;28;20339;-68
2021/01/29 04:36:59;;;;;;;0.40;0.40;;;12.90;99.90;;;;;;20605375;28;20238;-67
2021/01/29 04:47:28;;;;;;;0.47;0.30;;;12.50;99.90;;;;;;20588464;28;697610;-66
2021/01/29 04:58:05;;;;;;;0.20;0.00;;;12.80;99.90;;;;;;20609428;28;20973;-72
2021/01/29 05:08:40;;;;;;;0.30;0.30;;;14.00;99.90;;;;;;20655727;23;20226;-82
2021/01/29 05:19:13;;;;;;;0.47;0.33;;;16.90;99.90;;;;;;20710826;28;20539;-79
2021/01/29 05:29:32;;;;;;;0.43;0.30;;;17.30;99.90;;;;;;20688299;28;20286;-78
2021/01/29 05:39:44;;;;;;;0.47;0.17;;;17.70;99.90;;;;;;20687348;28;20211;-71
2021/01/29 05:50:06;;;;;;;0.40;0.37;;;17.80;99.90;;;;;;20707289;28;20429;-78
2021/01/29 06:00:28;;;;;;;3.80;1.27;;;17.70;99.90;;;;;;20703292;28;20234;-80
2021/01/29 06:11:01;;;;;;;0.40;0.30;;;17.80;99.90;;;;;;20702514;28;20198;-79
2021/01/29 06:21:25;;;;;;;2.00;0.80;;;17.70;99.90;;;;;;20705774;28;20230;-79
2021/01/29 06:32:12;;;;;;;0.20;0.20;;;17.80;99.90;;;;;;20700382;28;20701;-79
2021/01/29 06:43:13;;;;;;;0.30;0.20;;;17.50;99.90;;;;;;20702936;28;20222;-75
2021/01/29 06:53:55;;;;;;;0.20;0.13;;;17.40;99.90;;;;;;20592881;22;20275;-77
2021/01/29 07:04:55;;;;;;;1.03;0.60;;;17.10;99.90;;;;;;20590857;23;20385;-80
2021/01/29 07:15:34;;;;;;;0.43;0.23;;;17.10;99.90;;;;;;20535469;28;20208;-81
2021/01/29 07:25:48;;;;;;;0.20;0.10;;;16.70;99.90;;;;;;20536145;28;20325;-77
2021/01/29 07:36:12;;;;;;;5.40;0.93;;;16.70;99.90;;;;;;20539813;28;20215;-81
2021/01/29 07:46:47;;;;;;;1.47;1.17;;;16.40;99.90;;;;;;20517457;28;20228;-78
2021/01/29 07:57:03;;;;;;;1.50;1.13;;;15.40;99.90;;;;;;20534894;28;20212;-75
2021/01/29 08:07:14;;;;;;;0.60;0.60;;;15.10;99.90;;;;;;20532303;28;20295;-79
2021/01/29 08:17:40;;;;;;;1.00;0.67;;;16.20;99.90;;;;;;20533283;28;20541;-81
2021/01/29 08:28:14;;;;;;;1.47;1.17;;;16.70;99.90;;;;;;20535101;28;20227;-75
2021/01/29 08:38:26;;;;;;;0.40;0.20;;;16.70;99.90;;;;;;20435189;28;20452;-75
2021/01/29 08:48:42;;;;;;;1.13;0.30;;;16.30;99.90;;;;;;20462275;28;20772;-74
2021/01/29 08:58:59;;;;;;;1.57;1.20;;;16.90;99.90;;;;;;20529188;28;20204;-73
2021/01/29 09:09:06;;;;;;;2.33;0.60;;;17.10;99.90;;;;;;20524253;28;20369;-71
2021/01/29 09:19:13;;;;;;;1.00;0.57;;;17.20;99.90;;;;;;20489616;28;20227;-74
2021/01/29 09:29:21;;;;;;;0.40;0.40;;;17.20;99.90;;;;;;20499520;28;20228;-73
2021/01/29 09:39:30;;;;;;;2.77;0.90;;;17.30;99.90;;;;;;20506098;28;20340;-72
2021/01/29 09:49:37;;;;;;;0.30;0.30;;;17.80;99.90;;;;;;20482235;28;20208;-72
2021/01/29 09:59:54;;;;;;;3.73;1.00;;;17.90;99.90;;;;;;20520101;28;20254;-72
2021/01/29 10:10:04;;;;;;;0.40;0.40;;;18.30;99.90;;;;;;20527910;28;20665;-75
2021/01/29 10:20:12;;;;;;;0.57;0.57;;;18.60;99.90;;;;;;20534348;28;20222;-74
2021/01/29 10:30:21;;;;;;;6.03;1.07;;;18.90;99.90;;;;;;20538624;28;20250;-73
2021/01/29 10:40:30;;;;;;;0.47;0.20;;;19.50;99.90;;;;;;20537193;28;20294;-73
2021/01/29 10:50:47;;;;;;;0.87;0.30;;;19.90;99.90;;;;;;20532851;28;20200;-72
2021/01/29 11:00:55;;;;;;;0.83;0.70;;;20.40;99.90;;;;;;20535707;28;20247;-73
2021/01/29 11:11:02;;;;;;;0.67;0.67;;;20.90;99.90;;;;;;20482337;28;20718;-74
2021/01/29 11:21:16;;;;;;;0.50;0.20;;;21.20;99.90;;;;;;20498222;28;20220;-74
2021/01/29 11:31:39;;;;;;;0.97;0.30;;;21.50;99.90;;;;;;20515043;28;20208;-73
2021/01/29 11:42:11;;;;;;;1.50;0.40;;;21.70;99.90;;;;;;20530110;28;20232;-71
2021/01/29 11:52:39;;;;;;;1.27;0.97;;;22.10;99.90;;;;;;20493290;28;20197;-72
2021/01/29 12:02:57;;;;;;;0.75;0.50;;;23.10;99.90;;;;;;20518460;28;20229;-71
2021/01/29 12:13:07;;;;;;;0.20;0.15;;;22.90;99.90;;;;;;20525695;28;20196;-72
2021/01/29 12:23:20;;;;;;;0.20;0.20;;;23.60;99.90;;;;;;20466165;28;20319;-73
2021/01/29 12:33:26;;;;;;;0.38;0.30;;;23.30;99.90;;;;;;20432550;28;20193;-72
2021/01/29 12:43:37;;;;;;;1.67;0.75;;;24.30;99.90;;;;;;20497596;28;20256;-72
2021/01/29 12:53:50;;;;;;;1.17;0.68;;;25.20;99.90;;;;;;20474522;28;20331;-71
2021/01/29 13:04:18;;;;;;;0.68;0.43;;;26.10;99.90;;;;;;20449073;28;20592;-73
2021/01/29 13:14:27;;;;;;;0.95;0.73;;;24.60;99.90;;;;;;20483979;28;20438;-73
2021/01/29 13:24:33;;;;;;;1.70;0.85;;;25.30;99.90;;;;;;20541952;28;20223;-73
2021/01/29 13:34:43;;;;;;;0.60;0.60;;;25.10;99.90;;;;;;20534995;28;20653;-73
2021/01/29 13:44:52;;;;;;;2.72;0.73;;;25.90;99.90;;;;;;20539454;28;20243;-72
2021/01/29 13:54:59;;;;;;;0.40;0.35;;;26.20;99.90;;;;;;20540931;28;20226;-73
2021/01/29 14:05:12;;;;;;;3.85;3.42;;;25.00;99.90;;;;;;20539206;28;20239;-74
2021/01/29 14:15:23;;;;;;;2.67;1.20;;;25.20;99.90;;;;;;20539966;28;20513;-74
2021/01/29 14:25:45;;;;;;;1.38;1.00;;;24.80;99.90;;;;;;20520061;28;20231;-73
2021/01/29 14:36:08;;;;;;;2.00;1.35;;;24.10;99.90;;;;;;20521246;28;20875;-72
2021/01/29 14:46:33;;;;;;;1.33;1.17;;;25.20;99.90;;;;;;20520076;28;20533;-72
2021/01/29 14:56:42;;;;;;;2.50;1.70;;;24.00;99.90;;;;;;20460007;28;20185;-73
2021/01/29 15:06:56;;;;;;;2.80;2.00;;;21.40;99.90;;;;;;20423563;28;20436;-73
2021/01/29 15:16:58;;;;;;;7.37;2.00;;;21.20;99.90;;;;;;20519961;28;20255;-74
2021/01/29 15:27:06;;;;;;;1.23;1.13;;;22.40;99.90;;;;;;20526963;28;20693;-73
2021/01/29 15:37:08;;;;;;;3.43;1.90;;;20.00;99.90;;;;;;20531445;28;20534;-72
2021/01/29 15:47:48;;;;;;;2.10;1.97;;;22.30;99.90;;;;;;20530114;28;20290;-73
2021/01/29 15:57:56;;;;;;;1.17;0.60;;;22.30;99.90;;;;;;20458572;28;20201;-73
2021/01/29 16:08:04;;;;;;;5.70;1.10;;;21.80;99.90;;;;;;20452909;28;20236;-73
2021/01/29 16:18:16;;;;;;;1.67;1.37;;;20.50;99.90;;;;;;20519860;28;20275;-73
2021/01/29 16:28:20;;;;;;;2.20;1.63;;;19.70;99.90;;;;;;20467811;28;20512;-73
2021/01/29 16:38:34;;;;;;;2.53;1.33;;;18.90;99.90;;;;;;20444459;28;20204;-73
2021/01/29 16:48:38;;;;;;;1.77;1.23;;;18.00;99.90;;;;;;20460743;28;20579;-72
2021/01/29 16:58:43;;;;;;;1.93;1.53;;;18.00;99.90;;;;;;20527811;28;20986;-73
2021/01/29 17:08:49;;;;;;;2.57;2.33;;;17.70;99.90;;;;;;20460075;28;20740;-71
2021/01/29 17:18:56;;;;;;;6.53;3.27;;;17.30;99.90;;;;;;20448258;28;20201;-73
2021/01/29 17:28:59;;;;;;;2.80;2.57;;;17.10;99.90;;;;;;20482753;28;20259;-71
2021/01/29 17:39:16;;;;;;;4.90;3.43;;;16.70;99.90;;;;;;20513476;28;20740;-74
2021/01/29 17:49:34;;;;;;;9.50;3.23;;;16.30;99.90;;;;;;20505735;28;20660;-71
2021/01/29 17:59:36;;;;;;;5.97;2.83;;;16.30;99.90;;;;;;20532776;28;20275;-72
2021/01/29 18:10:02;;;;;;;3.80;3.27;;;16.30;99.90;;;;;;20535064;28;20236;-69
2021/01/29 18:20:11;;;;;;;6.17;3.10;;;16.30;99.90;;;;;;20518647;28;20207;-70
2021/01/29 18:30:24;;;;;;;3.70;2.90;;;16.40;99.90;;;;;;20516837;28;20280;-70
2021/01/29 18:40:27;;;;;;;3.77;2.73;;;16.20;99.90;;;;;;20441220;28;20566;-73
2021/01/29 18:50:32;;;;;;;3.73;2.47;;;15.90;99.90;;;;;;20502608;28;20677;-70
2021/01/29 19:00:35;;;;;;;2.27;1.73;;;15.50;99.90;;;;;;20492131;28;20371;-72
2021/01/29 19:10:40;;;;;;;4.77;2.03;;;15.00;99.90;;;;;;20477824;28;20229;-70
2021/01/29 19:20:47;;;;;;;2.07;1.93;;;15.10;99.90;;;;;;20528917;28;20216;-70
2021/01/29 19:30:50;;;;;;;2.13;1.47;;;14.70;99.90;;;;;;20529178;28;20603;-70
2021/01/29 19:40:56;;;;;;;6.23;1.83;;;14.70;99.90;;;;;;20526079;28;20681;-74
2021/01/29 19:51:06;;;;;;;2.13;1.93;;;14.20;99.90;;;;;;20467384;28;20218;-71
2021/01/29 20:01:10;;;;;;;1.03;0.93;;;14.00;99.90;;;;;;20492927;28;20585;-75
2021/01/29 20:11:14;;;;;;;2.30;1.87;;;13.60;99.90;;;;;;20500568;28;20789;-71
2021/01/29 20:21:19;;;;;;;1.73;1.40;;;13.80;99.90;;;;;;20522466;28;20227;-71
2021/01/29 20:31:23;;;;;;;3.20;2.27;;;13.90;99.90;;;;;;20529558;28;20201;-72
2021/01/29 20:41:26;;;;;;;1.03;0.83;;;13.90;99.90;;;;;;20528593;28;20239;-72
2021/01/29 20:51:29;;;;;;;5.07;1.40;;;13.50;99.90;;;;;;20527659;28;20210;-72
2021/01/29 21:01:32;;;;;;;2.07;1.37;;;13.00;99.90;;;;;;20527094;28;20318;-72
2021/01/29 21:11:38;;;;;;;7.53;1.80;;;12.70;99.90;;;;;;20528902;28;20647;-73
2021/01/29 21:21:41;;;;;;;3.23;1.23;;;12.50;99.90;;;;;;20520480;28;20268;-73
2021/01/29 21:31:45;;;;;;;6.67;2.03;;;12.40;99.90;;;;;;20448322;28;20192;-74
2021/01/29 21:41:48;;;;;;;1.70;1.60;;;12.40;99.90;;;;;;20542578;28;20756;-73
2021/01/29 21:51:52;;;;;;;2.03;1.83;;;12.20;99.90;;;;;;20541931;28;20649;-72
2021/01/29 22:01:55;;;;;;;4.37;2.53;;;12.40;99.90;;;;;;20540951;28;20243;-74
2021/01/29 22:12:00;;;;;;;1.87;1.73;;;12.40;99.90;;;;;;20544235;28;20212;-79
2021/01/29 22:22:04;;;;;;;2.43;1.43;;;13.00;99.90;;;;;;20541976;28;20285;-78
2021/01/29 22:32:10;;;;;;;1.00;0.97;;;13.00;99.90;;;;;;20539141;28;20543;-77
2021/01/29 22:42:27;;;;;;;3.80;1.63;;;12.90;99.90;;;;;;20539302;28;20465;-77
2021/01/29 22:52:31;;;;;;;1.03;0.87;;;12.80;99.90;;;;;;20538521;28;20223;-76
2021/01/29 23:02:36;;;;;;;1.67;1.57;;;12.70;99.90;;;;;;20540093;28;20255;-78
2021/01/29 23:12:40;;;;;;;0.60;0.60;;;12.40;99.90;;;;;;20540797;28;20204;-77
2021/01/29 23:22:43;;;;;;;4.23;1.63;;;12.10;99.90;;;;;;20539166;28;20735;-79
2021/01/29 23:32:56;;;;;;;0.93;0.83;;;11.90;99.90;;;;;;20536848;28;20983;-78
2021/01/29 23:43:12;;;;;;;0.20;0.20;;;11.90;99.90;;;;;;20539180;28;20660;-77
2021/01/29 23:53:19;;;;;;;0.50;0.40;;;11.40;99.90;;;;;;20534020;28;20192;-76
